sensor_id;sensor_type;location;lat;lon;timestamp;P1;durP1;ratioP1;P2;durP2;ratioP2
80503;SDS011;69825;51.190;6.808;2023-06-14T00:00:03;2.33;;;2.22;;
80503;SDS011;69825;51.190;6.808;2023-06-14T00:02:30;2.58;;;2.38;;
80503;SDS011;69825;51.190;6.808;2023-06-14T00:04:56;2.60;;;2.40;;
80503;SDS011;69825;51.190;6.808;2023-06-14T00:07:22;2.50;;;2.33;;
80503;SDS011;69825;51.190;6.808;2023-06-14T00:10:03;2.35;;;2.25;;
80503;SDS011;69825;51.190;6.808;2023-06-14T00:12:30;2.47;;;2.30;;
80503;SDS011;69825;51.190;6.808;2023-06-14T00:14:56;2.30;;;2.20;;
80503;SDS011;69825;51.190;6.808;2023-06-14T00:17:21;2.38;;;2.28;;
80503;SDS011;69825;51.190;6.808;2023-06-14T00:19:47;2.78;;;2.58;;
80503;SDS011;69825;51.190;6.808;2023-06-14T00:22:13;2.20;;;2.10;;
80503;SDS011;69825;51.190;6.808;2023-06-14T00:24:38;2.55;;;2.35;;
80503;SDS011;69825;51.190;6.808;2023-06-14T00:27:04;2.20;;;2.10;;
80503;SDS011;69825;51.190;6.808;2023-06-14T00:29:30;2.50;;;2.40;;
80503;SDS011;69825;51.190;6.808;2023-06-14T00:31:55;2.75;;;2.55;;
80503;SDS011;69825;51.190;6.808;2023-06-14T00:34:21;2.50;;;2.40;;
80503;SDS011;69825;51.190;6.808;2023-06-14T00:36:46;2.40;;;2.30;;
80503;SDS011;69825;51.190;6.808;2023-06-14T00:39:11;2.30;;;2.20;;
80503;SDS011;69825;51.190;6.808;2023-06-14T00:41:37;2.58;;;2.40;;
80503;SDS011;69825;51.190;6.808;2023-06-14T00:44:02;2.40;;;2.30;;
80503;SDS011;69825;51.190;6.808;2023-06-14T00:46:28;2.28;;;2.17;;
80503;SDS011;69825;51.190;6.808;2023-06-14T00:48:53;2.00;;;1.90;;
80503;SDS011;69825;51.190;6.808;2023-06-14T00:51:20;2.08;;;1.98;;
80503;SDS011;69825;51.190;6.808;2023-06-14T00:53:46;2.20;;;2.10;;
80503;SDS011;69825;51.190;6.808;2023-06-14T00:56:12;2.35;;;2.25;;
80503;SDS011;69825;51.190;6.808;2023-06-14T00:58:39;2.17;;;2.08;;
80503;SDS011;69825;51.190;6.808;2023-06-14T01:01:06;2.40;;;2.30;;
80503;SDS011;69825;51.190;6.808;2023-06-14T01:03:31;2.15;;;2.05;;
80503;SDS011;69825;51.190;6.808;2023-06-14T01:09:36;2.40;;;2.20;;
80503;SDS011;69825;51.190;6.808;2023-06-14T01:14:27;2.40;;;2.30;;
80503;SDS011;69825;51.190;6.808;2023-06-14T01:16:55;2.35;;;2.25;;
80503;SDS011;69825;51.190;6.808;2023-06-14T01:19:24;2.15;;;2.03;;
80503;SDS011;69825;51.190;6.808;2023-06-14T01:21:50;2.28;;;2.17;;
80503;SDS011;69825;51.190;6.808;2023-06-14T01:24:16;2.20;;;2.10;;
80503;SDS011;69825;51.190;6.808;2023-06-14T01:26:44;2.28;;;2.17;;
80503;SDS011;69825;51.190;6.808;2023-06-14T01:29:10;2.33;;;2.20;;
80503;SDS011;69825;51.190;6.808;2023-06-14T01:31:36;2.35;;;2.25;;
80503;SDS011;69825;51.190;6.808;2023-06-14T01:34:06;2.05;;;1.95;;
80503;SDS011;69825;51.190;6.808;2023-06-14T01:36:32;2.30;;;2.20;;
80503;SDS011;69825;51.190;6.808;2023-06-14T01:38:58;2.17;;;2.08;;
80503;SDS011;69825;51.190;6.808;2023-06-14T01:41:24;2.33;;;2.22;;
80503;SDS011;69825;51.190;6.808;2023-06-14T01:43:50;2.17;;;2.08;;
80503;SDS011;69825;51.190;6.808;2023-06-14T01:46:17;2.10;;;2.00;;
80503;SDS011;69825;51.190;6.808;2023-06-14T01:48:42;2.20;;;2.10;;
80503;SDS011;69825;51.190;6.808;2023-06-14T01:51:08;2.10;;;2.00;;
80503;SDS011;69825;51.190;6.808;2023-06-14T01:53:34;2.30;;;2.20;;
80503;SDS011;69825;51.190;6.808;2023-06-14T01:55:59;2.20;;;2.10;;
80503;SDS011;69825;51.190;6.808;2023-06-14T01:58:26;2.25;;;2.15;;
80503;SDS011;69825;51.190;6.808;2023-06-14T02:00:51;2.35;;;2.22;;
80503;SDS011;69825;51.190;6.808;2023-06-14T02:03:21;1.98;;;1.88;;
80503;SDS011;69825;51.190;6.808;2023-06-14T02:05:46;2.30;;;2.20;;
80503;SDS011;69825;51.190;6.808;2023-06-14T02:08:12;2.15;;;2.05;;
80503;SDS011;69825;51.190;6.808;2023-06-14T02:10:37;2.25;;;2.15;;
80503;SDS011;69825;51.190;6.808;2023-06-14T02:13:02;2.83;;;2.42;;
80503;SDS011;69825;51.190;6.808;2023-06-14T02:15:28;2.70;;;2.50;;
80503;SDS011;69825;51.190;6.808;2023-06-14T02:17:58;2.70;;;2.50;;
80503;SDS011;69825;51.190;6.808;2023-06-14T02:20:25;2.70;;;2.50;;
80503;SDS011;69825;51.190;6.808;2023-06-14T02:22:50;2.70;;;2.50;;
80503;SDS011;69825;51.190;6.808;2023-06-14T02:25:15;3.60;;;3.00;;
80503;SDS011;69825;51.190;6.808;2023-06-14T02:27:41;2.90;;;2.70;;
80503;SDS011;69825;51.190;6.808;2023-06-14T02:30:06;3.28;;;2.60;;
80503;SDS011;69825;51.190;6.808;2023-06-14T02:32:32;3.20;;;2.90;;
80503;SDS011;69825;51.190;6.808;2023-06-14T02:35:00;2.50;;;2.30;;
80503;SDS011;69825;51.190;6.808;2023-06-14T02:37:26;3.80;;;3.00;;
80503;SDS011;69825;51.190;6.808;2023-06-14T02:39:51;3.33;;;3.03;;
80503;SDS011;69825;51.190;6.808;2023-06-14T02:42:16;3.75;;;2.88;;
80503;SDS011;69825;51.190;6.808;2023-06-14T02:44:42;3.00;;;2.78;;
80503;SDS011;69825;51.190;6.808;2023-06-14T02:47:08;4.32;;;3.08;;
80503;SDS011;69825;51.190;6.808;2023-06-14T02:49:33;3.17;;;2.88;;
80503;SDS011;69825;51.190;6.808;2023-06-14T02:51:59;3.40;;;3.10;;
80503;SDS011;69825;51.190;6.808;2023-06-14T02:54:25;3.33;;;3.00;;
80503;SDS011;69825;51.190;6.808;2023-06-14T02:56:50;3.65;;;3.30;;
80503;SDS011;69825;51.190;6.808;2023-06-14T02:59:15;3.60;;;3.30;;
80503;SDS011;69825;51.190;6.808;2023-06-14T03:01:42;3.42;;;3.10;;
80503;SDS011;69825;51.190;6.808;2023-06-14T03:04:08;3.50;;;3.20;;
80503;SDS011;69825;51.190;6.808;2023-06-14T03:06:33;3.92;;;3.40;;
80503;SDS011;69825;51.190;6.808;2023-06-14T03:08:59;3.28;;;3.03;;
80503;SDS011;69825;51.190;6.808;2023-06-14T03:11:26;3.75;;;3.20;;
80503;SDS011;69825;51.190;6.808;2023-06-14T03:13:52;7.50;;;3.00;;
80503;SDS011;69825;51.190;6.808;2023-06-14T03:16:17;3.90;;;3.20;;
80503;SDS011;69825;51.190;6.808;2023-06-14T03:18:46;3.88;;;3.47;;
80503;SDS011;69825;51.190;6.808;2023-06-14T03:21:13;3.28;;;3.03;;
80503;SDS011;69825;51.190;6.808;2023-06-14T03:23:40;3.28;;;2.97;;
80503;SDS011;69825;51.190;6.808;2023-06-14T03:26:06;4.35;;;3.30;;
80503;SDS011;69825;51.190;6.808;2023-06-14T03:28:31;3.75;;;3.17;;
80503;SDS011;69825;51.190;6.808;2023-06-14T03:30:56;3.88;;;3.47;;
80503;SDS011;69825;51.190;6.808;2023-06-14T03:33:22;3.45;;;3.22;;
80503;SDS011;69825;51.190;6.808;2023-06-14T03:35:47;3.75;;;3.38;;
80503;SDS011;69825;51.190;6.808;2023-06-14T03:38:12;3.95;;;3.35;;
80503;SDS011;69825;51.190;6.808;2023-06-14T03:40:38;3.60;;;3.30;;
80503;SDS011;69825;51.190;6.808;2023-06-14T03:43:03;4.40;;;3.15;;
80503;SDS011;69825;51.190;6.808;2023-06-14T03:45:28;4.07;;;3.33;;
80503;SDS011;69825;51.190;6.808;2023-06-14T03:47:54;3.47;;;3.13;;
80503;SDS011;69825;51.190;6.808;2023-06-14T03:50:19;3.95;;;3.53;;
80503;SDS011;69825;51.190;6.808;2023-06-14T03:52:45;4.20;;;3.25;;
80503;SDS011;69825;51.190;6.808;2023-06-14T03:55:11;3.92;;;3.10;;
80503;SDS011;69825;51.190;6.808;2023-06-14T03:57:38;3.67;;;3.38;;
80503;SDS011;69825;51.190;6.808;2023-06-14T04:00:03;4.32;;;3.70;;
80503;SDS011;69825;51.190;6.808;2023-06-14T04:02:30;3.70;;;3.30;;
80503;SDS011;69825;51.190;6.808;2023-06-14T04:04:56;3.65;;;3.35;;
80503;SDS011;69825;51.190;6.808;2023-06-14T04:07:21;3.50;;;3.20;;
80503;SDS011;69825;51.190;6.808;2023-06-14T04:09:48;4.57;;;3.50;;
80503;SDS011;69825;51.190;6.808;2023-06-14T04:12:14;4.65;;;3.63;;
80503;SDS011;69825;51.190;6.808;2023-06-14T04:14:39;4.28;;;3.35;;
80503;SDS011;69825;51.190;6.808;2023-06-14T04:17:05;3.78;;;3.20;;
80503;SDS011;69825;51.190;6.808;2023-06-14T04:19:31;5.55;;;3.60;;
80503;SDS011;69825;51.190;6.808;2023-06-14T04:21:56;4.13;;;3.33;;
80503;SDS011;69825;51.190;6.808;2023-06-14T04:24:24;3.80;;;3.40;;
80503;SDS011;69825;51.190;6.808;2023-06-14T04:26:56;4.95;;;3.17;;
80503;SDS011;69825;51.190;6.808;2023-06-14T04:29:23;4.65;;;3.40;;
80503;SDS011;69825;51.190;6.808;2023-06-14T04:31:49;3.70;;;3.40;;
80503;SDS011;69825;51.190;6.808;2023-06-14T04:34:14;4.47;;;3.40;;
80503;SDS011;69825;51.190;6.808;2023-06-14T04:36:42;3.40;;;3.13;;
80503;SDS011;69825;51.190;6.808;2023-06-14T04:39:17;3.70;;;3.15;;
80503;SDS011;69825;51.190;6.808;2023-06-14T04:41:43;7.72;;;3.70;;
80503;SDS011;69825;51.190;6.808;2023-06-14T04:44:09;3.92;;;3.53;;
80503;SDS011;69825;51.190;6.808;2023-06-14T04:46:35;7.50;;;4.13;;
80503;SDS011;69825;51.190;6.808;2023-06-14T04:49:09;6.10;;;3.80;;
80503;SDS011;69825;51.190;6.808;2023-06-14T04:51:34;9.80;;;3.78;;
80503;SDS011;69825;51.190;6.808;2023-06-14T04:53:59;7.18;;;4.00;;
80503;SDS011;69825;51.190;6.808;2023-06-14T04:56:26;4.68;;;3.85;;
80503;SDS011;69825;51.190;6.808;2023-06-14T04:58:51;5.63;;;3.83;;
80503;SDS011;69825;51.190;6.808;2023-06-14T05:01:18;9.85;;;4.40;;
80503;SDS011;69825;51.190;6.808;2023-06-14T05:03:44;5.40;;;3.78;;
80503;SDS011;69825;51.190;6.808;2023-06-14T05:06:10;6.95;;;3.90;;
80503;SDS011;69825;51.190;6.808;2023-06-14T05:08:36;9.55;;;4.35;;
80503;SDS011;69825;51.190;6.808;2023-06-14T05:11:02;9.75;;;4.43;;
80503;SDS011;69825;51.190;6.808;2023-06-14T05:13:27;4.65;;;3.97;;
80503;SDS011;69825;51.190;6.808;2023-06-14T05:15:53;7.68;;;4.70;;
80503;SDS011;69825;51.190;6.808;2023-06-14T05:18:18;9.52;;;4.45;;
80503;SDS011;69825;51.190;6.808;2023-06-14T05:20:44;4.93;;;4.35;;
80503;SDS011;69825;51.190;6.808;2023-06-14T05:23:11;5.90;;;4.40;;
80503;SDS011;69825;51.190;6.808;2023-06-14T05:25:41;5.95;;;4.20;;
80503;SDS011;69825;51.190;6.808;2023-06-14T05:28:08;5.32;;;4.15;;
80503;SDS011;69825;51.190;6.808;2023-06-14T05:30:33;7.88;;;4.15;;
80503;SDS011;69825;51.190;6.808;2023-06-14T05:32:58;6.82;;;4.30;;
80503;SDS011;69825;51.190;6.808;2023-06-14T05:35:24;8.18;;;4.03;;
80503;SDS011;69825;51.190;6.808;2023-06-14T05:37:51;4.82;;;3.83;;
80503;SDS011;69825;51.190;6.808;2023-06-14T05:40:17;6.85;;;4.30;;
80503;SDS011;69825;51.190;6.808;2023-06-14T05:42:42;7.53;;;3.78;;
80503;SDS011;69825;51.190;6.808;2023-06-14T05:45:08;8.73;;;4.35;;
80503;SDS011;69825;51.190;6.808;2023-06-14T05:47:33;6.40;;;4.18;;
80503;SDS011;69825;51.190;6.808;2023-06-14T05:49:58;6.85;;;4.10;;
80503;SDS011;69825;51.190;6.808;2023-06-14T05:52:24;6.68;;;4.25;;
80503;SDS011;69825;51.190;6.808;2023-06-14T05:54:50;5.82;;;3.88;;
80503;SDS011;69825;51.190;6.808;2023-06-14T05:57:15;5.45;;;3.65;;
80503;SDS011;69825;51.190;6.808;2023-06-14T05:59:41;8.05;;;3.95;;
80503;SDS011;69825;51.190;6.808;2023-06-14T06:02:06;6.55;;;4.18;;
80503;SDS011;69825;51.190;6.808;2023-06-14T06:04:31;7.53;;;4.10;;
80503;SDS011;69825;51.190;6.808;2023-06-14T06:06:57;4.57;;;4.00;;
80503;SDS011;69825;51.190;6.808;2023-06-14T06:09:22;5.20;;;3.80;;
80503;SDS011;69825;51.190;6.808;2023-06-14T06:11:48;4.55;;;3.53;;
80503;SDS011;69825;51.190;6.808;2023-06-14T06:14:13;4.95;;;3.58;;
80503;SDS011;69825;51.190;6.808;2023-06-14T06:16:38;6.72;;;3.67;;
80503;SDS011;69825;51.190;6.808;2023-06-14T06:19:04;4.35;;;3.90;;
80503;SDS011;69825;51.190;6.808;2023-06-14T06:21:29;4.30;;;3.85;;
80503;SDS011;69825;51.190;6.808;2023-06-14T06:23:54;4.00;;;3.38;;
80503;SDS011;69825;51.190;6.808;2023-06-14T06:26:21;5.03;;;3.55;;
80503;SDS011;69825;51.190;6.808;2023-06-14T06:28:47;8.52;;;3.88;;
80503;SDS011;69825;51.190;6.808;2023-06-14T06:31:12;5.70;;;3.70;;
80503;SDS011;69825;51.190;6.808;2023-06-14T06:33:37;9.32;;;3.55;;
80503;SDS011;69825;51.190;6.808;2023-06-14T06:36:04;6.50;;;3.75;;
80503;SDS011;69825;51.190;6.808;2023-06-14T06:38:30;4.88;;;3.50;;
80503;SDS011;69825;51.190;6.808;2023-06-14T06:40:55;5.13;;;3.38;;
80503;SDS011;69825;51.190;6.808;2023-06-14T06:43:21;3.80;;;3.28;;
80503;SDS011;69825;51.190;6.808;2023-06-14T06:45:47;6.75;;;3.85;;
80503;SDS011;69825;51.190;6.808;2023-06-14T06:48:12;5.43;;;3.60;;
80503;SDS011;69825;51.190;6.808;2023-06-14T06:50:37;6.10;;;3.50;;
80503;SDS011;69825;51.190;6.808;2023-06-14T06:53:03;5.05;;;3.60;;
80503;SDS011;69825;51.190;6.808;2023-06-14T06:55:28;7.15;;;3.67;;
80503;SDS011;69825;51.190;6.808;2023-06-14T06:57:54;3.85;;;3.28;;
80503;SDS011;69825;51.190;6.808;2023-06-14T07:00:20;4.15;;;3.47;;
80503;SDS011;69825;51.190;6.808;2023-06-14T07:02:46;6.63;;;3.53;;
80503;SDS011;69825;51.190;6.808;2023-06-14T07:05:12;5.95;;;3.55;;
80503;SDS011;69825;51.190;6.808;2023-06-14T07:07:37;4.97;;;3.10;;
80503;SDS011;69825;51.190;6.808;2023-06-14T07:10:03;4.97;;;3.17;;
80503;SDS011;69825;51.190;6.808;2023-06-14T07:12:30;5.80;;;3.05;;
80503;SDS011;69825;51.190;6.808;2023-06-14T07:14:58;7.40;;;3.30;;
80503;SDS011;69825;51.190;6.808;2023-06-14T07:17:24;3.80;;;3.03;;
80503;SDS011;69825;51.190;6.808;2023-06-14T07:19:49;4.75;;;3.10;;
80503;SDS011;69825;51.190;6.808;2023-06-14T07:22:15;4.70;;;2.97;;
80503;SDS011;69825;51.190;6.808;2023-06-14T07:24:41;4.38;;;3.08;;
80503;SDS011;69825;51.190;6.808;2023-06-14T07:27:07;6.22;;;2.97;;
80503;SDS011;69825;51.190;6.808;2023-06-14T07:29:32;5.50;;;3.60;;
80503;SDS011;69825;51.190;6.808;2023-06-14T07:31:58;3.65;;;3.05;;
80503;SDS011;69825;51.190;6.808;2023-06-14T07:34:23;4.03;;;3.30;;
80503;SDS011;69825;51.190;6.808;2023-06-14T07:36:48;5.10;;;3.10;;
80503;SDS011;69825;51.190;6.808;2023-06-14T07:39:14;5.55;;;3.30;;
80503;SDS011;69825;51.190;6.808;2023-06-14T07:41:40;4.25;;;3.05;;
80503;SDS011;69825;51.190;6.808;2023-06-14T07:44:05;4.32;;;2.97;;
80503;SDS011;69825;51.190;6.808;2023-06-14T07:46:30;4.65;;;3.17;;
80503;SDS011;69825;51.190;6.808;2023-06-14T07:48:56;4.95;;;3.03;;
80503;SDS011;69825;51.190;6.808;2023-06-14T07:51:22;6.43;;;2.75;;
80503;SDS011;69825;51.190;6.808;2023-06-14T07:53:48;3.13;;;2.83;;
80503;SDS011;69825;51.190;6.808;2023-06-14T07:56:13;4.43;;;3.42;;
80503;SDS011;69825;51.190;6.808;2023-06-14T07:58:39;3.20;;;2.90;;
80503;SDS011;69825;51.190;6.808;2023-06-14T08:01:04;4.97;;;3.20;;
80503;SDS011;69825;51.190;6.808;2023-06-14T08:03:31;3.17;;;2.75;;
80503;SDS011;69825;51.190;6.808;2023-06-14T08:05:57;4.47;;;2.92;;
80503;SDS011;69825;51.190;6.808;2023-06-14T08:08:23;4.30;;;2.90;;
80503;SDS011;69825;51.190;6.808;2023-06-14T08:10:48;3.70;;;3.05;;
80503;SDS011;69825;51.190;6.808;2023-06-14T08:13:13;2.83;;;2.63;;
80503;SDS011;69825;51.190;6.808;2023-06-14T08:15:39;2.78;;;2.58;;
80503;SDS011;69825;51.190;6.808;2023-06-14T08:18:04;3.00;;;2.53;;
80503;SDS011;69825;51.190;6.808;2023-06-14T08:20:30;3.22;;;2.92;;
80503;SDS011;69825;51.190;6.808;2023-06-14T08:22:56;3.42;;;3.00;;
80503;SDS011;69825;51.190;6.808;2023-06-14T08:25:22;3.10;;;2.78;;
80503;SDS011;69825;51.190;6.808;2023-06-14T08:27:47;3.00;;;2.70;;
80503;SDS011;69825;51.190;6.808;2023-06-14T08:30:13;3.15;;;2.67;;
80503;SDS011;69825;51.190;6.808;2023-06-14T08:32:39;2.80;;;2.33;;
80503;SDS011;69825;51.190;6.808;2023-06-14T08:35:04;3.38;;;2.85;;
80503;SDS011;69825;51.190;6.808;2023-06-14T08:37:30;2.90;;;2.58;;
80503;SDS011;69825;51.190;6.808;2023-06-14T08:39:56;2.72;;;2.53;;
80503;SDS011;69825;51.190;6.808;2023-06-14T08:42:21;2.58;;;2.38;;
80503;SDS011;69825;51.190;6.808;2023-06-14T08:44:49;2.70;;;2.50;;
80503;SDS011;69825;51.190;6.808;2023-06-14T08:47:14;2.58;;;2.17;;
80503;SDS011;69825;51.190;6.808;2023-06-14T08:49:41;2.83;;;2.60;;
80503;SDS011;69825;51.190;6.808;2023-06-14T08:52:10;5.97;;;2.70;;
80503;SDS011;69825;51.190;6.808;2023-06-14T08:54:37;3.58;;;2.60;;
80503;SDS011;69825;51.190;6.808;2023-06-14T08:57:08;2.70;;;2.50;;
80503;SDS011;69825;51.190;6.808;2023-06-14T08:59:37;2.90;;;2.55;;
80503;SDS011;69825;51.190;6.808;2023-06-14T09:02:10;3.25;;;2.92;;
80503;SDS011;69825;51.190;6.808;2023-06-14T09:04:38;2.70;;;2.50;;
80503;SDS011;69825;51.190;6.808;2023-06-14T09:07:04;2.80;;;2.47;;
80503;SDS011;69825;51.190;6.808;2023-06-14T09:09:31;2.42;;;2.20;;
80503;SDS011;69825;51.190;6.808;2023-06-14T09:11:56;2.55;;;2.35;;
80503;SDS011;69825;51.190;6.808;2023-06-14T09:14:23;2.50;;;2.30;;
80503;SDS011;69825;51.190;6.808;2023-06-14T09:16:53;3.65;;;2.58;;
80503;SDS011;69825;51.190;6.808;2023-06-14T09:19:25;2.45;;;2.20;;
80503;SDS011;69825;51.190;6.808;2023-06-14T09:21:52;2.67;;;2.47;;
80503;SDS011;69825;51.190;6.808;2023-06-14T09:24:18;2.53;;;2.22;;
80503;SDS011;69825;51.190;6.808;2023-06-14T09:26:46;2.65;;;2.30;;
80503;SDS011;69825;51.190;6.808;2023-06-14T09:29:12;3.30;;;2.53;;
80503;SDS011;69825;51.190;6.808;2023-06-14T09:31:37;2.58;;;2.38;;
80503;SDS011;69825;51.190;6.808;2023-06-14T09:34:03;2.58;;;2.35;;
80503;SDS011;69825;51.190;6.808;2023-06-14T09:36:31;2.55;;;2.35;;
80503;SDS011;69825;51.190;6.808;2023-06-14T09:39:01;2.90;;;2.60;;
80503;SDS011;69825;51.190;6.808;2023-06-14T09:41:34;2.60;;;2.40;;
80503;SDS011;69825;51.190;6.808;2023-06-14T09:44:02;2.58;;;2.33;;
80503;SDS011;69825;51.190;6.808;2023-06-14T09:46:30;3.08;;;2.45;;
80503;SDS011;69825;51.190;6.808;2023-06-14T09:48:59;2.47;;;2.20;;
80503;SDS011;69825;51.190;6.808;2023-06-14T09:51:25;2.38;;;2.17;;
80503;SDS011;69825;51.190;6.808;2023-06-14T09:53:52;2.20;;;2.00;;
80503;SDS011;69825;51.190;6.808;2023-06-14T09:56:22;2.35;;;2.15;;
80503;SDS011;69825;51.190;6.808;2023-06-14T09:58:53;3.95;;;2.30;;
80503;SDS011;69825;51.190;6.808;2023-06-14T10:01:20;2.38;;;2.10;;
80503;SDS011;69825;51.190;6.808;2023-06-14T10:03:47;2.83;;;2.10;;
80503;SDS011;69825;51.190;6.808;2023-06-14T10:06:15;3.80;;;2.10;;
80503;SDS011;69825;51.190;6.808;2023-06-14T10:08:41;2.70;;;1.90;;
80503;SDS011;69825;51.190;6.808;2023-06-14T10:11:07;3.33;;;2.00;;
80503;SDS011;69825;51.190;6.808;2023-06-14T10:13:32;5.60;;;2.15;;
80503;SDS011;69825;51.190;6.808;2023-06-14T10:21:36;2.20;;;1.98;;
80503;SDS011;69825;51.190;6.808;2023-06-14T10:24:08;2.20;;;1.73;;
80503;SDS011;69825;51.190;6.808;2023-06-14T10:26:49;2.45;;;1.80;;
80503;SDS011;69825;51.190;6.808;2023-06-14T10:29:16;4.13;;;1.83;;
80503;SDS011;69825;51.190;6.808;2023-06-14T10:31:42;2.60;;;1.90;;
80503;SDS011;69825;51.190;6.808;2023-06-14T10:34:24;4.15;;;1.70;;
80503;SDS011;69825;51.190;6.808;2023-06-14T10:37:04;1.80;;;1.70;;
80503;SDS011;69825;51.190;6.808;2023-06-14T10:39:32;2.58;;;1.73;;
80503;SDS011;69825;51.190;6.808;2023-06-14T10:42:03;2.33;;;1.73;;
80503;SDS011;69825;51.190;6.808;2023-06-14T10:46:56;2.00;;;1.70;;
80503;SDS011;69825;51.190;6.808;2023-06-14T10:49:41;2.08;;;1.50;;
80503;SDS011;69825;51.190;6.808;2023-06-14T10:52:11;1.95;;;1.48;;
80503;SDS011;69825;51.190;6.808;2023-06-14T11:00:23;4.43;;;1.90;;
80503;SDS011;69825;51.190;6.808;2023-06-14T11:06:01;1.98;;;1.40;;
80503;SDS011;69825;51.190;6.808;2023-06-14T11:08:50;1.52;;;1.42;;
80503;SDS011;69825;51.190;6.808;2023-06-14T11:11:39;1.70;;;1.60;;
80503;SDS011;69825;51.190;6.808;2023-06-14T11:14:07;1.77;;;1.60;;
80503;SDS011;69825;51.190;6.808;2023-06-14T11:16:32;1.88;;;1.60;;
80503;SDS011;69825;51.190;6.808;2023-06-14T11:18:59;3.33;;;1.63;;
80503;SDS011;69825;51.190;6.808;2023-06-14T11:21:26;3.15;;;1.70;;
80503;SDS011;69825;51.190;6.808;2023-06-14T11:23:56;1.70;;;1.60;;
80503;SDS011;69825;51.190;6.808;2023-06-14T11:26:39;2.20;;;1.65;;
80503;SDS011;69825;51.190;6.808;2023-06-14T11:29:05;2.78;;;1.65;;
80503;SDS011;69825;51.190;6.808;2023-06-14T11:31:31;2.47;;;1.60;;
80503;SDS011;69825;51.190;6.808;2023-06-14T11:33:57;1.88;;;1.60;;
80503;SDS011;69825;51.190;6.808;2023-06-14T11:36:25;1.58;;;1.48;;
80503;SDS011;69825;51.190;6.808;2023-06-14T11:39:05;2.03;;;1.70;;
80503;SDS011;69825;51.190;6.808;2023-06-14T11:44:09;2.25;;;1.50;;
80503;SDS011;69825;51.190;6.808;2023-06-14T11:46:35;1.80;;;1.70;;
80503;SDS011;69825;51.190;6.808;2023-06-14T11:49:01;1.80;;;1.50;;
80503;SDS011;69825;51.190;6.808;2023-06-14T11:51:29;1.73;;;1.63;;
80503;SDS011;69825;51.190;6.808;2023-06-14T11:53:58;1.38;;;1.23;;
80503;SDS011;69825;51.190;6.808;2023-06-14T11:56:23;1.48;;;1.38;;
80503;SDS011;69825;51.190;6.808;2023-06-14T11:58:50;1.75;;;1.40;;
80503;SDS011;69825;51.190;6.808;2023-06-14T12:01:16;1.65;;;1.55;;
80503;SDS011;69825;51.190;6.808;2023-06-14T12:03:48;1.80;;;1.70;;
80503;SDS011;69825;51.190;6.808;2023-06-14T12:06:15;1.83;;;1.67;;
80503;SDS011;69825;51.190;6.808;2023-06-14T12:08:43;1.60;;;1.50;;
80503;SDS011;69825;51.190;6.808;2023-06-14T12:11:10;1.67;;;1.40;;
80503;SDS011;69825;51.190;6.808;2023-06-14T12:13:38;1.67;;;1.40;;
80503;SDS011;69825;51.190;6.808;2023-06-14T12:16:11;1.58;;;1.42;;
80503;SDS011;69825;51.190;6.808;2023-06-14T12:18:37;1.50;;;1.40;;
80503;SDS011;69825;51.190;6.808;2023-06-14T12:21:04;1.52;;;1.40;;
80503;SDS011;69825;51.190;6.808;2023-06-14T12:26:09;1.67;;;1.50;;
80503;SDS011;69825;51.190;6.808;2023-06-14T12:28:35;1.60;;;1.50;;
80503;SDS011;69825;51.190;6.808;2023-06-14T12:31:00;1.48;;;1.33;;
80503;SDS011;69825;51.190;6.808;2023-06-14T12:33:26;1.60;;;1.50;;
80503;SDS011;69825;51.190;6.808;2023-06-14T12:35:53;1.60;;;1.50;;
80503;SDS011;69825;51.190;6.808;2023-06-14T12:38:21;2.00;;;1.40;;
80503;SDS011;69825;51.190;6.808;2023-06-14T12:40:46;1.25;;;1.20;;
80503;SDS011;69825;51.190;6.808;2023-06-14T12:43:12;1.65;;;1.50;;
80503;SDS011;69825;51.190;6.808;2023-06-14T12:45:37;1.45;;;1.35;;
80503;SDS011;69825;51.190;6.808;2023-06-14T12:48:02;1.50;;;1.40;;
80503;SDS011;69825;51.190;6.808;2023-06-14T12:50:28;1.40;;;1.30;;
80503;SDS011;69825;51.190;6.808;2023-06-14T12:52:53;1.48;;;1.38;;
80503;SDS011;69825;51.190;6.808;2023-06-14T12:55:18;1.55;;;1.45;;
80503;SDS011;69825;51.190;6.808;2023-06-14T12:57:44;1.38;;;1.27;;
80503;SDS011;69825;51.190;6.808;2023-06-14T13:00:10;1.65;;;1.30;;
80503;SDS011;69825;51.190;6.808;2023-06-14T13:02:37;1.35;;;1.25;;
80503;SDS011;69825;51.190;6.808;2023-06-14T13:05:03;1.83;;;1.55;;
80503;SDS011;69825;51.190;6.808;2023-06-14T13:07:29;1.42;;;1.33;;
80503;SDS011;69825;51.190;6.808;2023-06-14T13:09:54;1.25;;;1.20;;
80503;SDS011;69825;51.190;6.808;2023-06-14T13:12:20;1.50;;;1.40;;
80503;SDS011;69825;51.190;6.808;2023-06-14T13:14:45;1.40;;;1.30;;
80503;SDS011;69825;51.190;6.808;2023-06-14T13:17:11;1.52;;;1.42;;
80503;SDS011;69825;51.190;6.808;2023-06-14T13:19:36;1.20;;;1.10;;
80503;SDS011;69825;51.190;6.808;2023-06-14T13:22:02;1.17;;;1.17;;
80503;SDS011;69825;51.190;6.808;2023-06-14T13:24:27;1.50;;;1.40;;
80503;SDS011;69825;51.190;6.808;2023-06-14T13:26:54;1.40;;;1.30;;
80503;SDS011;69825;51.190;6.808;2023-06-14T13:29:20;1.60;;;1.20;;
80503;SDS011;69825;51.190;6.808;2023-06-14T13:31:45;1.40;;;1.30;;
80503;SDS011;69825;51.190;6.808;2023-06-14T13:34:11;2.05;;;1.20;;
80503;SDS011;69825;51.190;6.808;2023-06-14T13:36:36;0.98;;;0.98;;
80503;SDS011;69825;51.190;6.808;2023-06-14T13:39:02;1.40;;;1.20;;
80503;SDS011;69825;51.190;6.808;2023-06-14T13:41:28;1.60;;;1.50;;
80503;SDS011;69825;51.190;6.808;2023-06-14T13:43:57;1.48;;;1.20;;
80503;SDS011;69825;51.190;6.808;2023-06-14T13:46:23;1.20;;;1.10;;
80503;SDS011;69825;51.190;6.808;2023-06-14T13:48:48;1.30;;;1.20;;
80503;SDS011;69825;51.190;6.808;2023-06-14T13:51:13;1.20;;;1.20;;
80503;SDS011;69825;51.190;6.808;2023-06-14T13:53:39;2.65;;;1.35;;
80503;SDS011;69825;51.190;6.808;2023-06-14T13:56:04;1.75;;;1.10;;
80503;SDS011;69825;51.190;6.808;2023-06-14T13:58:30;1.30;;;1.20;;
80503;SDS011;69825;51.190;6.808;2023-06-14T14:00:55;1.17;;;1.10;;
80503;SDS011;69825;51.190;6.808;2023-06-14T14:03:20;1.30;;;1.20;;
80503;SDS011;69825;51.190;6.808;2023-06-14T14:05:46;1.33;;;1.23;;
80503;SDS011;69825;51.190;6.808;2023-06-14T14:08:12;1.30;;;1.20;;
80503;SDS011;69825;51.190;6.808;2023-06-14T14:10:37;1.20;;;1.10;;
80503;SDS011;69825;51.190;6.808;2023-06-14T14:13:03;2.00;;;1.10;;
80503;SDS011;69825;51.190;6.808;2023-06-14T14:15:28;1.85;;;1.10;;
80503;SDS011;69825;51.190;6.808;2023-06-14T14:17:55;1.17;;;1.17;;
80503;SDS011;69825;51.190;6.808;2023-06-14T14:20:22;1.20;;;1.20;;
80503;SDS011;69825;51.190;6.808;2023-06-14T14:22:48;1.42;;;1.10;;
80503;SDS011;69825;51.190;6.808;2023-06-14T14:25:13;1.10;;;1.10;;
80503;SDS011;69825;51.190;6.808;2023-06-14T14:27:38;1.17;;;1.15;;
80503;SDS011;69825;51.190;6.808;2023-06-14T14:30:04;1.00;;;1.00;;
80503;SDS011;69825;51.190;6.808;2023-06-14T14:32:30;1.00;;;1.00;;
80503;SDS011;69825;51.190;6.808;2023-06-14T14:34:56;1.48;;;1.15;;
80503;SDS011;69825;51.190;6.808;2023-06-14T14:37:21;0.90;;;0.90;;
80503;SDS011;69825;51.190;6.808;2023-06-14T14:39:46;1.10;;;1.00;;
80503;SDS011;69825;51.190;6.808;2023-06-14T14:42:12;1.17;;;1.10;;
80503;SDS011;69825;51.190;6.808;2023-06-14T14:44:38;1.00;;;1.00;;
80503;SDS011;69825;51.190;6.808;2023-06-14T14:47:04;1.48;;;1.00;;
80503;SDS011;69825;51.190;6.808;2023-06-14T14:49:30;1.05;;;1.05;;
80503;SDS011;69825;51.190;6.808;2023-06-14T14:51:56;1.15;;;1.15;;
80503;SDS011;69825;51.190;6.808;2023-06-14T14:54:21;1.20;;;1.10;;
80503;SDS011;69825;51.190;6.808;2023-06-14T14:56:46;1.02;;;1.02;;
80503;SDS011;69825;51.190;6.808;2023-06-14T14:59:12;1.13;;;1.02;;
80503;SDS011;69825;51.190;6.808;2023-06-14T15:01:37;1.42;;;1.00;;
80503;SDS011;69825;51.190;6.808;2023-06-14T15:04:03;1.17;;;1.08;;
80503;SDS011;69825;51.190;6.808;2023-06-14T15:06:28;1.20;;;1.20;;
80503;SDS011;69825;51.190;6.808;2023-06-14T15:08:53;1.30;;;1.20;;
80503;SDS011;69825;51.190;6.808;2023-06-14T15:11:19;1.38;;;1.27;;